sensor_id;sensor_type;location;lat;lon;timestamp;P1;durP1;ratioP1;P2;durP2;ratioP2
40599;SDS011;26309;50.924;4.754;2023-07-13T00:00:41;5.72;;;1.90;;
40599;SDS011;26309;50.924;4.754;2023-07-13T00:03:08;4.78;;;1.90;;
40599;SDS011;26309;50.924;4.754;2023-07-13T00:05:34;10.75;;;1.95;;
40599;SDS011;26309;50.924;4.754;2023-07-13T00:07:59;9.85;;;2.20;;
40599;SDS011;26309;50.924;4.754;2023-07-13T00:10:26;8.07;;;2.22;;
40599;SDS011;26309;50.924;4.754;2023-07-13T00:12:51;9.93;;;2.38;;
40599;SDS011;26309;50.924;4.754;2023-07-13T00:15:21;12.02;;;2.60;;
40599;SDS011;26309;50.924;4.754;2023-07-13T00:17:52;8.38;;;2.30;;
40599;SDS011;26309;50.924;4.754;2023-07-13T00:20:20;8.60;;;2.25;;
40599;SDS011;26309;50.924;4.754;2023-07-13T00:22:48;8.07;;;2.30;;
40599;SDS011;26309;50.924;4.754;2023-07-13T00:25:14;9.27;;;2.53;;
40599;SDS011;26309;50.924;4.754;2023-07-13T00:27:42;10.10;;;2.53;;
40599;SDS011;26309;50.924;4.754;2023-07-13T00:30:08;11.93;;;2.45;;
40599;SDS011;26309;50.924;4.754;2023-07-13T00:32:35;6.78;;;2.33;;
40599;SDS011;26309;50.924;4.754;2023-07-13T00:35:02;8.82;;;2.13;;
40599;SDS011;26309;50.924;4.754;2023-07-13T00:37:29;7.68;;;2.15;;
40599;SDS011;26309;50.924;4.754;2023-07-13T00:39:56;8.00;;;2.53;;
40599;SDS011;26309;50.924;4.754;2023-07-13T00:42:21;12.98;;;3.13;;
40599;SDS011;26309;50.924;4.754;2023-07-13T00:46:02;8.52;;;2.55;;
40599;SDS011;26309;50.924;4.754;2023-07-13T00:47:48;7.90;;;2.60;;
40599;SDS011;26309;50.924;4.754;2023-07-13T00:50:15;8.77;;;2.55;;
40599;SDS011;26309;50.924;4.754;2023-07-13T00:52:44;6.95;;;2.30;;
40599;SDS011;26309;50.924;4.754;2023-07-13T00:55:13;11.75;;;2.30;;
40599;SDS011;26309;50.924;4.754;2023-07-13T00:57:40;9.77;;;2.53;;
40599;SDS011;26309;50.924;4.754;2023-07-13T01:00:07;13.25;;;2.50;;
40599;SDS011;26309;50.924;4.754;2023-07-13T01:02:38;8.10;;;2.58;;
40599;SDS011;26309;50.924;4.754;2023-07-13T01:05:10;12.20;;;2.78;;
40599;SDS011;26309;50.924;4.754;2023-07-13T01:07:39;10.18;;;2.80;;
40599;SDS011;26309;50.924;4.754;2023-07-13T01:10:06;9.02;;;2.70;;
40599;SDS011;26309;50.924;4.754;2023-07-13T01:12:33;7.13;;;2.60;;
40599;SDS011;26309;50.924;4.754;2023-07-13T01:15:00;10.82;;;2.63;;
40599;SDS011;26309;50.924;4.754;2023-07-13T01:17:27;10.07;;;3.05;;
40599;SDS011;26309;50.924;4.754;2023-07-13T01:19:54;8.25;;;2.45;;
40599;SDS011;26309;50.924;4.754;2023-07-13T01:22:20;8.15;;;2.53;;
40599;SDS011;26309;50.924;4.754;2023-07-13T01:24:51;10.05;;;2.60;;
40599;SDS011;26309;50.924;4.754;2023-07-13T01:27:20;10.13;;;2.28;;
40599;SDS011;26309;50.924;4.754;2023-07-13T01:29:48;9.98;;;2.78;;
40599;SDS011;26309;50.924;4.754;2023-07-13T01:32:19;9.18;;;2.75;;
40599;SDS011;26309;50.924;4.754;2023-07-13T01:34:50;10.10;;;2.47;;
40599;SDS011;26309;50.924;4.754;2023-07-13T01:37:19;11.48;;;2.80;;
40599;SDS011;26309;50.924;4.754;2023-07-13T01:39:46;12.20;;;3.05;;
40599;SDS011;26309;50.924;4.754;2023-07-13T01:42:12;7.70;;;2.90;;
40599;SDS011;26309;50.924;4.754;2023-07-13T01:44:39;9.93;;;3.03;;
40599;SDS011;26309;50.924;4.754;2023-07-13T01:47:05;11.15;;;2.78;;
40599;SDS011;26309;50.924;4.754;2023-07-13T01:49:31;7.68;;;2.78;;
40599;SDS011;26309;50.924;4.754;2023-07-13T01:51:57;10.48;;;2.45;;
40599;SDS011;26309;50.924;4.754;2023-07-13T01:54:23;7.90;;;2.80;;
40599;SDS011;26309;50.924;4.754;2023-07-13T01:56:49;12.75;;;2.85;;
40599;SDS011;26309;50.924;4.754;2023-07-13T01:59:15;11.15;;;3.00;;
40599;SDS011;26309;50.924;4.754;2023-07-13T02:01:40;7.78;;;2.88;;
40599;SDS011;26309;50.924;4.754;2023-07-13T02:04:07;10.35;;;2.95;;
40599;SDS011;26309;50.924;4.754;2023-07-13T02:06:33;13.20;;;2.75;;
40599;SDS011;26309;50.924;4.754;2023-07-13T02:08:59;12.60;;;3.20;;
40599;SDS011;26309;50.924;4.754;2023-07-13T02:11:25;9.10;;;2.97;;
40599;SDS011;26309;50.924;4.754;2023-07-13T02:13:59;12.15;;;3.22;;
40599;SDS011;26309;50.924;4.754;2023-07-13T02:16:28;11.20;;;2.97;;
40599;SDS011;26309;50.924;4.754;2023-07-13T02:18:55;10.93;;;3.10;;
40599;SDS011;26309;50.924;4.754;2023-07-13T02:21:21;14.88;;;3.10;;
40599;SDS011;26309;50.924;4.754;2023-07-13T02:23:48;8.30;;;2.60;;
40599;SDS011;26309;50.924;4.754;2023-07-13T02:26:14;12.27;;;2.80;;
40599;SDS011;26309;50.924;4.754;2023-07-13T02:28:40;13.05;;;3.00;;
40599;SDS011;26309;50.924;4.754;2023-07-13T02:31:08;12.63;;;3.15;;
40599;SDS011;26309;50.924;4.754;2023-07-13T02:33:36;9.10;;;2.90;;
40599;SDS011;26309;50.924;4.754;2023-07-13T02:36:02;8.25;;;2.65;;
40599;SDS011;26309;50.924;4.754;2023-07-13T02:38:31;9.43;;;2.65;;
40599;SDS011;26309;50.924;4.754;2023-07-13T02:41:01;9.93;;;2.50;;
40599;SDS011;26309;50.924;4.754;2023-07-13T02:43:28;10.20;;;3.20;;
40599;SDS011;26309;50.924;4.754;2023-07-13T02:45:55;8.45;;;2.85;;
40599;SDS011;26309;50.924;4.754;2023-07-13T02:48:21;9.65;;;2.70;;
40599;SDS011;26309;50.924;4.754;2023-07-13T02:50:47;10.48;;;3.20;;
40599;SDS011;26309;50.924;4.754;2023-07-13T02:53:13;10.80;;;2.88;;
40599;SDS011;26309;50.924;4.754;2023-07-13T02:55:39;10.07;;;3.00;;
40599;SDS011;26309;50.924;4.754;2023-07-13T02:58:06;13.40;;;3.35;;
40599;SDS011;26309;50.924;4.754;2023-07-13T03:00:32;13.90;;;2.65;;
40599;SDS011;26309;50.924;4.754;2023-07-13T03:02:58;9.93;;;3.42;;
40599;SDS011;26309;50.924;4.754;2023-07-13T03:05:25;8.02;;;2.58;;
40599;SDS011;26309;50.924;4.754;2023-07-13T03:07:51;12.05;;;3.10;;
40599;SDS011;26309;50.924;4.754;2023-07-13T03:10:17;6.35;;;2.80;;
40599;SDS011;26309;50.924;4.754;2023-07-13T03:12:43;9.25;;;3.15;;
40599;SDS011;26309;50.924;4.754;2023-07-13T03:15:08;7.55;;;2.95;;
40599;SDS011;26309;50.924;4.754;2023-07-13T03:17:35;10.68;;;2.90;;
40599;SDS011;26309;50.924;4.754;2023-07-13T03:20:01;14.20;;;3.70;;
40599;SDS011;26309;50.924;4.754;2023-07-13T03:22:27;11.57;;;3.03;;
40599;SDS011;26309;50.924;4.754;2023-07-13T03:24:54;15.07;;;3.15;;
40599;SDS011;26309;50.924;4.754;2023-07-13T03:27:20;12.20;;;3.17;;
40599;SDS011;26309;50.924;4.754;2023-07-13T03:29:46;12.10;;;3.05;;
40599;SDS011;26309;50.924;4.754;2023-07-13T03:32:12;11.48;;;3.28;;
40599;SDS011;26309;50.924;4.754;2023-07-13T03:34:38;12.90;;;3.13;;
40599;SDS011;26309;50.924;4.754;2023-07-13T03:37:04;9.27;;;3.45;;
40599;SDS011;26309;50.924;4.754;2023-07-13T03:39:30;8.27;;;3.30;;
40599;SDS011;26309;50.924;4.754;2023-07-13T03:41:56;6.88;;;3.00;;
40599;SDS011;26309;50.924;4.754;2023-07-13T03:44:22;9.85;;;3.13;;
40599;SDS011;26309;50.924;4.754;2023-07-13T03:46:48;10.38;;;3.45;;
40599;SDS011;26309;50.924;4.754;2023-07-13T03:49:14;11.30;;;3.33;;
40599;SDS011;26309;50.924;4.754;2023-07-13T03:51:40;12.68;;;3.45;;
40599;SDS011;26309;50.924;4.754;2023-07-13T03:54:05;13.07;;;3.45;;
40599;SDS011;26309;50.924;4.754;2023-07-13T03:56:31;9.88;;;3.03;;
40599;SDS011;26309;50.924;4.754;2023-07-13T03:58:58;13.60;;;3.47;;
40599;SDS011;26309;50.924;4.754;2023-07-13T04:01:24;9.35;;;2.95;;
40599;SDS011;26309;50.924;4.754;2023-07-13T04:03:50;12.95;;;3.70;;
40599;SDS011;26309;50.924;4.754;2023-07-13T04:06:21;14.50;;;3.30;;
40599;SDS011;26309;50.924;4.754;2023-07-13T04:08:50;10.32;;;2.95;;
40599;SDS011;26309;50.924;4.754;2023-07-13T04:11:19;12.10;;;3.55;;
40599;SDS011;26309;50.924;4.754;2023-07-13T04:13:45;14.70;;;3.28;;
40599;SDS011;26309;50.924;4.754;2023-07-13T04:16:13;12.82;;;3.40;;
40599;SDS011;26309;50.924;4.754;2023-07-13T04:18:39;9.15;;;3.33;;
40599;SDS011;26309;50.924;4.754;2023-07-13T04:21:06;16.30;;;3.50;;
40599;SDS011;26309;50.924;4.754;2023-07-13T04:23:33;14.15;;;3.42;;
40599;SDS011;26309;50.924;4.754;2023-07-13T04:25:59;12.15;;;3.22;;
40599;SDS011;26309;50.924;4.754;2023-07-13T04:28:25;11.18;;;3.30;;
40599;SDS011;26309;50.924;4.754;2023-07-13T04:30:52;12.35;;;3.33;;
40599;SDS011;26309;50.924;4.754;2023-07-13T04:33:19;12.50;;;3.50;;
40599;SDS011;26309;50.924;4.754;2023-07-13T04:35:51;12.90;;;3.40;;
40599;SDS011;26309;50.924;4.754;2023-07-13T04:38:20;9.50;;;3.15;;
40599;SDS011;26309;50.924;4.754;2023-07-13T04:40:47;11.35;;;3.40;;
40599;SDS011;26309;50.924;4.754;2023-07-13T04:43:13;12.25;;;3.20;;
40599;SDS011;26309;50.924;4.754;2023-07-13T04:45:39;16.35;;;3.83;;
40599;SDS011;26309;50.924;4.754;2023-07-13T04:48:06;13.93;;;3.55;;
40599;SDS011;26309;50.924;4.754;2023-07-13T04:50:32;17.50;;;3.50;;
40599;SDS011;26309;50.924;4.754;2023-07-13T04:53:00;12.38;;;3.38;;
40599;SDS011;26309;50.924;4.754;2023-07-13T04:55:26;14.73;;;3.78;;
40599;SDS011;26309;50.924;4.754;2023-07-13T04:57:56;16.65;;;3.47;;
40599;SDS011;26309;50.924;4.754;2023-07-13T05:00:24;12.90;;;3.53;;
40599;SDS011;26309;50.924;4.754;2023-07-13T05:02:50;9.75;;;3.28;;
40599;SDS011;26309;50.924;4.754;2023-07-13T05:05:16;11.30;;;3.10;;
40599;SDS011;26309;50.924;4.754;2023-07-13T05:07:42;10.88;;;3.15;;
40599;SDS011;26309;50.924;4.754;2023-07-13T05:10:08;15.10;;;3.45;;
40599;SDS011;26309;50.924;4.754;2023-07-13T05:12:35;14.60;;;3.63;;
40599;SDS011;26309;50.924;4.754;2023-07-13T05:15:01;9.85;;;3.28;;
40599;SDS011;26309;50.924;4.754;2023-07-13T05:17:28;12.05;;;3.47;;
40599;SDS011;26309;50.924;4.754;2023-07-13T05:19:53;12.60;;;3.55;;
40599;SDS011;26309;50.924;4.754;2023-07-13T05:22:19;13.85;;;3.78;;
40599;SDS011;26309;50.924;4.754;2023-07-13T05:24:45;12.32;;;3.63;;
40599;SDS011;26309;50.924;4.754;2023-07-13T05:27:11;9.43;;;3.72;;
40599;SDS011;26309;50.924;4.754;2023-07-13T05:29:38;12.98;;;3.20;;
40599;SDS011;26309;50.924;4.754;2023-07-13T05:32:04;13.93;;;3.38;;
40599;SDS011;26309;50.924;4.754;2023-07-13T05:34:30;13.73;;;3.53;;
40599;SDS011;26309;50.924;4.754;2023-07-13T05:36:56;14.52;;;3.60;;
40599;SDS011;26309;50.924;4.754;2023-07-13T05:39:22;12.60;;;3.58;;
40599;SDS011;26309;50.924;4.754;2023-07-13T05:41:48;10.30;;;3.35;;
40599;SDS011;26309;50.924;4.754;2023-07-13T05:44:14;13.23;;;4.00;;
40599;SDS011;26309;50.924;4.754;2023-07-13T05:46:40;16.85;;;3.33;;
40599;SDS011;26309;50.924;4.754;2023-07-13T05:49:06;18.27;;;3.50;;
40599;SDS011;26309;50.924;4.754;2023-07-13T05:51:31;17.45;;;3.42;;
40599;SDS011;26309;50.924;4.754;2023-07-13T05:53:57;11.43;;;3.47;;
40599;SDS011;26309;50.924;4.754;2023-07-13T05:56:23;15.10;;;3.70;;
40599;SDS011;26309;50.924;4.754;2023-07-13T05:58:50;19.17;;;4.25;;
40599;SDS011;26309;50.924;4.754;2023-07-13T06:01:16;16.15;;;3.53;;
40599;SDS011;26309;50.924;4.754;2023-07-13T06:03:42;12.35;;;3.83;;
40599;SDS011;26309;50.924;4.754;2023-07-13T06:06:09;19.13;;;4.35;;
40599;SDS011;26309;50.924;4.754;2023-07-13T06:08:36;20.90;;;4.13;;
40599;SDS011;26309;50.924;4.754;2023-07-13T06:11:06;16.75;;;4.30;;
40599;SDS011;26309;50.924;4.754;2023-07-13T06:13:41;13.43;;;3.63;;
40599;SDS011;26309;50.924;4.754;2023-07-13T06:16:07;19.13;;;4.03;;
40599;SDS011;26309;50.924;4.754;2023-07-13T06:18:35;19.23;;;3.50;;
40599;SDS011;26309;50.924;4.754;2023-07-13T06:21:09;16.60;;;3.90;;
40599;SDS011;26309;50.924;4.754;2023-07-13T06:23:36;12.88;;;3.35;;
40599;SDS011;26309;50.924;4.754;2023-07-13T06:26:03;19.02;;;4.13;;
40599;SDS011;26309;50.924;4.754;2023-07-13T06:28:29;15.38;;;3.70;;
40599;SDS011;26309;50.924;4.754;2023-07-13T06:30:56;16.75;;;3.78;;
40599;SDS011;26309;50.924;4.754;2023-07-13T06:33:23;16.30;;;4.30;;
40599;SDS011;26309;50.924;4.754;2023-07-13T06:35:49;16.65;;;4.10;;
40599;SDS011;26309;50.924;4.754;2023-07-13T06:38:17;15.65;;;3.78;;
40599;SDS011;26309;50.924;4.754;2023-07-13T06:40:43;15.70;;;4.45;;
40599;SDS011;26309;50.924;4.754;2023-07-13T06:43:09;12.73;;;3.85;;
40599;SDS011;26309;50.924;4.754;2023-07-13T06:45:39;14.68;;;3.80;;
40599;SDS011;26309;50.924;4.754;2023-07-13T06:48:19;16.23;;;3.67;;
40599;SDS011;26309;50.924;4.754;2023-07-13T06:50:45;18.48;;;4.25;;
40599;SDS011;26309;50.924;4.754;2023-07-13T06:53:13;13.93;;;3.83;;
40599;SDS011;26309;50.924;4.754;2023-07-13T06:55:39;13.77;;;3.75;;
40599;SDS011;26309;50.924;4.754;2023-07-13T06:58:06;17.00;;;3.45;;
40599;SDS011;26309;50.924;4.754;2023-07-13T07:00:32;13.60;;;4.20;;
40599;SDS011;26309;50.924;4.754;2023-07-13T07:02:58;16.50;;;3.83;;
40599;SDS011;26309;50.924;4.754;2023-07-13T07:05:27;12.18;;;4.20;;
40599;SDS011;26309;50.924;4.754;2023-07-13T07:07:54;16.00;;;3.92;;
40599;SDS011;26309;50.924;4.754;2023-07-13T07:10:20;14.98;;;4.22;;
40599;SDS011;26309;50.924;4.754;2023-07-13T07:12:47;17.52;;;4.18;;
40599;SDS011;26309;50.924;4.754;2023-07-13T07:15:13;15.48;;;4.18;;
40599;SDS011;26309;50.924;4.754;2023-07-13T07:17:39;14.85;;;3.75;;
40599;SDS011;26309;50.924;4.754;2023-07-13T07:20:06;15.43;;;4.45;;
40599;SDS011;26309;50.924;4.754;2023-07-13T07:22:32;17.75;;;4.32;;
40599;SDS011;26309;50.924;4.754;2023-07-13T07:24:58;15.55;;;3.50;;
40599;SDS011;26309;50.924;4.754;2023-07-13T07:27:24;10.40;;;3.30;;
40599;SDS011;26309;50.924;4.754;2023-07-13T07:29:50;11.02;;;3.58;;
40599;SDS011;26309;50.924;4.754;2023-07-13T07:32:16;13.23;;;3.90;;
40599;SDS011;26309;50.924;4.754;2023-07-13T07:34:42;18.15;;;3.70;;
40599;SDS011;26309;50.924;4.754;2023-07-13T07:37:12;10.68;;;3.25;;
40599;SDS011;26309;50.924;4.754;2023-07-13T07:39:38;13.02;;;3.17;;
40599;SDS011;26309;50.924;4.754;2023-07-13T07:42:04;14.05;;;3.72;;
40599;SDS011;26309;50.924;4.754;2023-07-13T07:44:31;12.38;;;3.25;;
40599;SDS011;26309;50.924;4.754;2023-07-13T07:46:58;14.90;;;3.58;;
40599;SDS011;26309;50.924;4.754;2023-07-13T07:49:24;19.63;;;4.53;;
40599;SDS011;26309;50.924;4.754;2023-07-13T07:51:50;16.17;;;3.42;;
40599;SDS011;26309;50.924;4.754;2023-07-13T07:54:16;13.10;;;3.67;;
40599;SDS011;26309;50.924;4.754;2023-07-13T07:56:43;14.18;;;3.30;;
40599;SDS011;26309;50.924;4.754;2023-07-13T07:59:08;14.82;;;3.75;;
40599;SDS011;26309;50.924;4.754;2023-07-13T08:01:35;10.75;;;3.30;;
40599;SDS011;26309;50.924;4.754;2023-07-13T08:04:01;13.25;;;3.33;;
40599;SDS011;26309;50.924;4.754;2023-07-13T08:06:27;14.38;;;3.33;;
40599;SDS011;26309;50.924;4.754;2023-07-13T08:08:55;14.02;;;3.33;;
40599;SDS011;26309;50.924;4.754;2023-07-13T08:11:21;13.20;;;3.60;;
40599;SDS011;26309;50.924;4.754;2023-07-13T08:13:48;12.13;;;3.88;;
40599;SDS011;26309;50.924;4.754;2023-07-13T08:16:16;13.98;;;3.78;;
40599;SDS011;26309;50.924;4.754;2023-07-13T08:18:42;11.63;;;3.42;;
40599;SDS011;26309;50.924;4.754;2023-07-13T08:21:08;12.05;;;3.42;;
40599;SDS011;26309;50.924;4.754;2023-07-13T08:23:34;11.80;;;3.35;;
40599;SDS011;26309;50.924;4.754;2023-07-13T08:26:01;10.07;;;3.28;;
40599;SDS011;26309;50.924;4.754;2023-07-13T08:28:29;16.15;;;3.53;;
40599;SDS011;26309;50.924;4.754;2023-07-13T08:31:07;12.48;;;3.50;;
40599;SDS011;26309;50.924;4.754;2023-07-13T08:33:34;12.55;;;3.22;;
40599;SDS011;26309;50.924;4.754;2023-07-13T08:36:00;14.82;;;2.78;;
40599;SDS011;26309;50.924;4.754;2023-07-13T08:38:26;13.55;;;2.70;;
40599;SDS011;26309;50.924;4.754;2023-07-13T08:40:53;13.63;;;3.33;;
40599;SDS011;26309;50.924;4.754;2023-07-13T08:43:28;10.60;;;3.10;;
40599;SDS011;26309;50.924;4.754;2023-07-13T08:46:02;15.93;;;3.40;;
40599;SDS011;26309;50.924;4.754;2023-07-13T08:48:46;12.02;;;3.15;;
40599;SDS011;26309;50.924;4.754;2023-07-13T08:54:03;11.30;;;2.85;;
40599;SDS011;26309;50.924;4.754;2023-07-13T08:56:34;10.40;;;2.88;;
40599;SDS011;26309;50.924;4.754;2023-07-13T08:59:01;9.57;;;3.20;;
40599;SDS011;26309;50.924;4.754;2023-07-13T09:04:20;9.65;;;2.83;;
40599;SDS011;26309;50.924;4.754;2023-07-13T09:09:29;7.57;;;2.97;;
40599;SDS011;26309;50.924;4.754;2023-07-13T09:14:45;8.48;;;2.67;;
40599;SDS011;26309;50.924;4.754;2023-07-13T09:17:24;11.75;;;3.00;;
40599;SDS011;26309;50.924;4.754;2023-07-13T09:20:03;11.95;;;2.63;;
40599;SDS011;26309;50.924;4.754;2023-07-13T09:22:52;7.88;;;2.95;;
40599;SDS011;26309;50.924;4.754;2023-07-13T09:28:10;9.25;;;2.83;;
40599;SDS011;26309;50.924;4.754;2023-07-13T09:30:53;7.35;;;2.30;;
40599;SDS011;26309;50.924;4.754;2023-07-13T09:33:26;7.65;;;2.28;;
40599;SDS011;26309;50.924;4.754;2023-07-13T09:35:55;9.57;;;2.30;;
40599;SDS011;26309;50.924;4.754;2023-07-13T09:38:24;13.57;;;2.75;;
40599;SDS011;26309;50.924;4.754;2023-07-13T09:46:37;5.20;;;2.30;;
40599;SDS011;26309;50.924;4.754;2023-07-13T09:49:04;6.57;;;2.03;;
40599;SDS011;26309;50.924;4.754;2023-07-13T09:51:30;5.25;;;2.15;;
40599;SDS011;26309;50.924;4.754;2023-07-13T09:53:56;11.07;;;2.00;;
40599;SDS011;26309;50.924;4.754;2023-07-13T09:56:26;10.02;;;2.40;;
40599;SDS011;26309;50.924;4.754;2023-07-13T09:58:55;5.95;;;2.25;;
40599;SDS011;26309;50.924;4.754;2023-07-13T10:01:38;7.88;;;2.33;;
40599;SDS011;26309;50.924;4.754;2023-07-13T10:04:14;7.15;;;2.40;;
40599;SDS011;26309;50.924;4.754;2023-07-13T10:06:47;10.40;;;2.38;;
40599;SDS011;26309;50.924;4.754;2023-07-13T10:09:15;7.03;;;2.30;;
40599;SDS011;26309;50.924;4.754;2023-07-13T10:11:42;6.70;;;2.13;;
40599;SDS011;26309;50.924;4.754;2023-07-13T10:14:11;7.38;;;2.17;;
40599;SDS011;26309;50.924;4.754;2023-07-13T10:16:48;6.53;;;2.13;;
40599;SDS011;26309;50.924;4.754;2023-07-13T10:19:19;8.02;;;2.65;;
40599;SDS011;26309;50.924;4.754;2023-07-13T10:21:59;8.45;;;2.15;;
40599;SDS011;26309;50.924;4.754;2023-07-13T10:24:52;5.70;;;2.25;;
40599;SDS011;26309;50.924;4.754;2023-07-13T10:27:22;6.45;;;1.90;;
40599;SDS011;26309;50.924;4.754;2023-07-13T10:30:02;7.22;;;2.00;;
40599;SDS011;26309;50.924;4.754;2023-07-13T10:32:45;8.23;;;1.92;;
40599;SDS011;26309;50.924;4.754;2023-07-13T10:35:14;6.20;;;2.20;;
40599;SDS011;26309;50.924;4.754;2023-07-13T10:37:45;6.28;;;2.17;;
40599;SDS011;26309;50.924;4.754;2023-07-13T10:40:20;8.38;;;2.28;;
40599;SDS011;26309;50.924;4.754;2023-07-13T10:42:55;6.35;;;1.95;;
40599;SDS011;26309;50.924;4.754;2023-07-13T10:45:24;7.13;;;1.90;;
40599;SDS011;26309;50.924;4.754;2023-07-13T10:47:52;8.20;;;2.00;;
40599;SDS011;26309;50.924;4.754;2023-07-13T10:50:24;7.22;;;2.13;;
40599;SDS011;26309;50.924;4.754;2023-07-13T10:52:53;6.07;;;2.08;;
40599;SDS011;26309;50.924;4.754;2023-07-13T10:55:30;5.03;;;2.20;;
40599;SDS011;26309;50.924;4.754;2023-07-13T10:58:13;6.75;;;1.80;;
40599;SDS011;26309;50.924;4.754;2023-07-13T11:00:45;4.55;;;2.00;;
40599;SDS011;26309;50.924;4.754;2023-07-13T11:03:24;8.57;;;2.15;;
40599;SDS011;26309;50.924;4.754;2023-07-13T11:08:35;4.60;;;2.20;;
40599;SDS011;26309;50.924;4.754;2023-07-13T11:11:04;6.88;;;2.00;;
40599;SDS011;26309;50.924;4.754;2023-07-13T11:21:36;7.63;;;2.42;;
40599;SDS011;26309;50.924;4.754;2023-07-13T11:27:40;6.22;;;1.85;;
40599;SDS011;26309;50.924;4.754;2023-07-13T11:33:02;5.82;;;2.00;;
40599;SDS011;26309;50.924;4.754;2023-07-13T11:35:32;7.00;;;2.20;;
40599;SDS011;26309;50.924;4.754;2023-07-13T11:38:08;7.57;;;2.30;;
40599;SDS011;26309;50.924;4.754;2023-07-13T11:40:44;4.15;;;1.90;;
40599;SDS011;26309;50.924;4.754;2023-07-13T11:43:15;6.97;;;2.22;;
40599;SDS011;26309;50.924;4.754;2023-07-13T11:45:44;5.43;;;2.05;;
40599;SDS011;26309;50.924;4.754;2023-07-13T11:48:22;3.30;;;1.85;;
40599;SDS011;26309;50.924;4.754;2023-07-13T11:50:51;6.32;;;1.60;;
40599;SDS011;26309;50.924;4.754;2023-07-13T11:53:21;5.22;;;1.60;;
40599;SDS011;26309;50.924;4.754;2023-07-13T11:55:47;4.63;;;1.98;;
40599;SDS011;26309;50.924;4.754;2023-07-13T11:58:16;7.10;;;1.67;;
40599;SDS011;26309;50.924;4.754;2023-07-13T12:00:46;6.88;;;1.65;;
40599;SDS011;26309;50.924;4.754;2023-07-13T12:03:13;6.97;;;1.92;;
40599;SDS011;26309;50.924;4.754;2023-07-13T12:08:28;5.95;;;1.88;;
40599;SDS011;26309;50.924;4.754;2023-07-13T12:10:59;4.40;;;1.77;;
40599;SDS011;26309;50.924;4.754;2023-07-13T12:13:34;3.95;;;1.80;;
40599;SDS011;26309;50.924;4.754;2023-07-13T12:16:07;6.47;;;1.48;;
40599;SDS011;26309;50.924;4.754;2023-07-13T12:18:42;4.28;;;1.90;;
40599;SDS011;26309;50.924;4.754;2023-07-13T12:21:14;6.97;;;1.90;;
40599;SDS011;26309;50.924;4.754;2023-07-13T12:23:43;9.05;;;2.20;;
40599;SDS011;26309;50.924;4.754;2023-07-13T12:26:12;5.20;;;1.83;;
40599;SDS011;26309;50.924;4.754;2023-07-13T12:33:59;3.08;;;1.95;;
40599;SDS011;26309;50.924;4.754;2023-07-13T12:36:29;6.88;;;1.88;;
40599;SDS011;26309;50.924;4.754;2023-07-13T12:38:59;5.13;;;1.70;;
40599;SDS011;26309;50.924;4.754;2023-07-13T12:41:37;8.60;;;2.30;;
40599;SDS011;26309;50.924;4.754;2023-07-13T12:44:02;4.63;;;1.77;;
40599;SDS011;26309;50.924;4.754;2023-07-13T12:46:32;3.08;;;2.13;;
40599;SDS011;26309;50.924;4.754;2023-07-13T12:48:58;4.15;;;2.30;;
40599;SDS011;26309;50.924;4.754;2023-07-13T12:51:25;6.93;;;2.47;;
40599;SDS011;26309;50.924;4.754;2023-07-13T12:54:06;7.57;;;2.28;;
40599;SDS011;26309;50.924;4.754;2023-07-13T12:56:44;5.50;;;2.15;;
40599;SDS011;26309;50.924;4.754;2023-07-13T12:59:17;6.50;;;2.30;;
40599;SDS011;26309;50.924;4.754;2023-07-13T13:01:45;3.85;;;1.95;;
40599;SDS011;26309;50.924;4.754;2023-07-13T13:04:14;6.18;;;2.05;;
40599;SDS011;26309;50.924;4.754;2023-07-13T13:06:41;5.38;;;2.20;;
40599;SDS011;26309;50.924;4.754;2023-07-13T13:09:12;4.18;;;2.10;;
40599;SDS011;26309;50.924;4.754;2023-07-13T13:11:39;4.10;;;2.17;;
40599;SDS011;26309;50.924;4.754;2023-07-13T13:14:06;4.22;;;2.05;;
40599;SDS011;26309;50.924;4.754;2023-07-13T13:16:40;4.25;;;2.10;;
40599;SDS011;26309;50.924;4.754;2023-07-13T13:19:20;4.30;;;1.90;;
40599;SDS011;26309;50.924;4.754;2023-07-13T13:21:50;3.65;;;2.05;;
40599;SDS011;26309;50.924;4.754;2023-07-13T13:24:20;2.92;;;1.90;;
40599;SDS011;26309;50.924;4.754;2023-07-13T13:26:47;3.53;;;2.10;;
40599;SDS011;26309;50.924;4.754;2023-07-13T13:29:19;2.75;;;2.15;;
40599;SDS011;26309;50.924;4.754;2023-07-13T13:31:46;5.32;;;1.95;;
40599;SDS011;26309;50.924;4.754;2023-07-13T13:34:14;3.60;;;2.00;;
40599;SDS011;26309;50.924;4.754;2023-07-13T13:36:42;4.75;;;2.20;;
40599;SDS011;26309;50.924;4.754;2023-07-13T13:41:46;5.47;;;2.10;;
40599;SDS011;26309;50.924;4.754;2023-07-13T13:44:14;5.05;;;2.38;;
40599;SDS011;26309;50.924;4.754;2023-07-13T13:46:43;6.05;;;1.95;;
40599;SDS011;26309;50.924;4.754;2023-07-13T13:49:17;5.13;;;2.08;;
40599;SDS011;26309;50.924;4.754;2023-07-13T13:51:47;4.85;;;2.42;;
40599;SDS011;26309;50.924;4.754;2023-07-13T13:54:14;6.68;;;2.40;;
40599;SDS011;26309;50.924;4.754;2023-07-13T13:56:42;3.38;;;2.20;;
40599;SDS011;26309;50.924;4.754;2023-07-13T13:59:09;5.25;;;2.10;;
40599;SDS011;26309;50.924;4.754;2023-07-13T14:01:36;3.85;;;2.05;;
40599;SDS011;26309;50.924;4.754;2023-07-13T14:04:03;4.30;;;1.98;;
40599;SDS011;26309;50.924;4.754;2023-07-13T14:06:31;5.57;;;2.22;;
40599;SDS011;26309;50.924;4.754;2023-07-13T14:08:58;6.75;;;2.15;;
40599;SDS011;26309;50.924;4.754;2023-07-13T14:11:26;3.55;;;1.90;;
40599;SDS011;26309;50.924;4.754;2023-07-13T14:13:58;5.50;;;1.92;;
40599;SDS011;26309;50.924;4.754;2023-07-13T14:16:30;4.78;;;2.30;;
40599;SDS011;26309;50.924;4.754;2023-07-13T14:18:59;3.35;;;1.90;;
40599;SDS011;26309;50.924;4.754;2023-07-13T14:21:26;4.10;;;2.03;;
40599;SDS011;26309;50.924;4.754;2023-07-13T14:23:53;3.58;;;1.90;;
40599;SDS011;26309;50.924;4.754;2023-07-13T14:26:20;5.85;;;1.80;;
40599;SDS011;26309;50.924;4.754;2023-07-13T14:28:52;3.85;;;1.80;;
40599;SDS011;26309;50.924;4.754;2023-07-13T14:31:20;5.57;;;1.95;;
40599;SDS011;26309;50.924;4.754;2023-07-13T14:33:47;3.80;;;1.50;;
40599;SDS011;26309;50.924;4.754;2023-07-13T14:36:55;5.47;;;1.75;;
40599;SDS011;26309;50.924;4.754;2023-07-13T14:39:17;4.38;;;1.80;;
40599;SDS011;26309;50.924;4.754;2023-07-13T14:41:44;4.20;;;1.70;;
40599;SDS011;26309;50.924;4.754;2023-07-13T14:44:12;4.15;;;1.65;;
40599;SDS011;26309;50.924;4.754;2023-07-13T14:46:39;2.97;;;1.33;;
40599;SDS011;26309;50.924;4.754;2023-07-13T14:49:10;7.75;;;1.60;;
40599;SDS011;26309;50.924;4.754;2023-07-13T14:51:41;3.10;;;1.48;;
40599;SDS011;26309;50.924;4.754;2023-07-13T14:54:08;8.07;;;1.80;;
40599;SDS011;26309;50.924;4.754;2023-07-13T14:56:35;4.13;;;1.90;;
40599;SDS011;26309;50.924;4.754;2023-07-13T14:59:01;4.15;;;1.75;;
40599;SDS011;26309;50.924;4.754;2023-07-13T15:01:26;3.08;;;1.67;;
40599;SDS011;26309;50.924;4.754;2023-07-13T15:03:53;3.72;;;1.80;;
40599;SDS011;26309;50.924;4.754;2023-07-13T15:06:20;3.20;;;1.63;;
40599;SDS011;26309;50.924;4.754;2023-07-13T15:08:46;3.15;;;1.60;;
40599;SDS011;26309;50.924;4.754;2023-07-13T15:11:15;3.85;;;1.83;;
40599;SDS011;26309;50.924;4.754;2023-07-13T15:13:48;4.72;;;1.60;;
40599;SDS011;26309;50.924;4.754;2023-07-13T15:16:25;4.97;;;1.90;;
40599;SDS011;26309;50.924;4.754;2023-07-13T15:18:52;4.95;;;1.92;;
40599;SDS011;26309;50.924;4.754;2023-07-13T15:21:23;5.97;;;1.90;;
40599;SDS011;26309;50.924;4.754;2023-07-13T15:24:01;3.13;;;1.40;;
40599;SDS011;26309;50.924;4.754;2023-07-13T15:26:29;4.65;;;1.50;;
40599;SDS011;26309;50.924;4.754;2023-07-13T15:28:58;5.25;;;1.65;;
40599;SDS011;26309;50.924;4.754;2023-07-13T15:31:25;3.80;;;1.77;;
40599;SDS011;26309;50.924;4.754;2023-07-13T15:33:55;3.75;;;1.40;;
40599;SDS011;26309;50.924;4.754;2023-07-13T15:36:23;2.85;;;1.83;;